createdAt,value
2023-01-05T00:00:38.847Z,14.15
2023-01-05T00:03:07.572Z,13.50
2023-01-05T00:05:35.852Z,14.02
2023-01-05T00:08:04.584Z,14.30
2023-01-05T00:10:50.716Z,13.32
2023-01-05T00:13:40.312Z,14.20
2023-01-05T00:16:33.863Z,13.77
2023-01-05T00:19:20.293Z,13.00
2023-01-05T00:22:07.604Z,12.98
2023-01-05T00:24:38.763Z,13.98
2023-01-05T00:27:15.059Z,12.70
2023-01-05T00:29:43.075Z,13.85
2023-01-05T00:32:11.063Z,13.00
2023-01-05T00:34:46.732Z,12.05
2023-01-05T00:37:15.035Z,13.57
2023-01-05T00:39:43.325Z,13.05
2023-01-05T00:42:11.333Z,12.73
2023-01-05T00:44:41.879Z,12.52
2023-01-05T00:47:09.857Z,12.25
2023-01-05T00:49:40.307Z,12.18
2023-01-05T00:52:08.852Z,13.10
2023-01-05T00:54:39.249Z,12.50
2023-01-05T00:57:07.664Z,12.98
2023-01-05T00:59:37.156Z,12.77
2023-01-05T01:02:07.396Z,12.57
2023-01-05T01:04:41.983Z,12.90
2023-01-05T01:07:10.923Z,12.90
2023-01-05T01:09:41.824Z,13.35
2023-01-05T01:12:09.790Z,12.25
2023-01-05T01:14:38.929Z,13.13
2023-01-05T01:17:07.103Z,13.02
2023-01-05T01:19:36.015Z,12.18
2023-01-05T01:22:04.127Z,13.10
2023-01-05T01:24:32.554Z,12.35
2023-01-05T01:27:01.765Z,13.15
2023-01-05T01:29:30.177Z,12.18
2023-01-05T01:32:01.431Z,13.82
2023-01-05T01:34:30.047Z,12.07
2023-01-05T01:36:59.623Z,12.32
2023-01-05T01:39:31.828Z,13.30
2023-01-05T01:42:04.568Z,13.65
2023-01-05T01:44:47.841Z,13.00
2023-01-05T01:47:28.714Z,13.30
2023-01-05T01:50:03.138Z,12.40
2023-01-05T01:52:32.950Z,11.77
2023-01-05T01:55:02.292Z,11.75
2023-01-05T01:57:30.828Z,12.13
2023-01-05T02:00:01.145Z,11.40
2023-01-05T02:02:30.896Z,11.88
2023-01-05T02:05:03.599Z,11.88
2023-01-05T02:07:34.472Z,11.35
2023-01-05T02:10:03.642Z,11.55
2023-01-05T02:12:40.346Z,11.77
2023-01-05T02:15:45.184Z,11.07
2023-01-05T02:18:47.579Z,10.93
2023-01-05T02:21:38.742Z,11.40
2023-01-05T02:24:34.000Z,10.88
2023-01-05T02:30:11.471Z,11.70
2023-01-05T02:32:56.292Z,11.05
2023-01-05T02:35:48.492Z,11.68
2023-01-05T02:38:29.152Z,10.98
2023-01-05T02:41:00.565Z,9.80
2023-01-05T02:43:29.689Z,10.00
2023-01-05T02:45:57.568Z,9.02
2023-01-05T02:48:26.946Z,10.05
2023-01-05T02:51:01.470Z,10.70
2023-01-05T02:53:37.535Z,9.68
2023-01-05T02:56:10.724Z,10.25
2023-01-05T02:59:03.605Z,10.05
2023-01-05T03:01:40.514Z,10.55
2023-01-05T03:04:13.965Z,10.15
2023-01-05T03:06:49.682Z,9.23
2023-01-05T03:09:23.215Z,10.18
2023-01-05T03:12:36.865Z,10.13
2023-01-05T03:15:18.838Z,10.80
2023-01-05T03:18:07.410Z,10.13
2023-01-05T03:20:41.936Z,11.57
2023-01-05T03:23:31.475Z,11.20
2023-01-05T03:26:26.417Z,11.75
2023-01-05T03:29:20.772Z,10.45
2023-01-05T03:32:31.617Z,11.85
2023-01-05T03:35:27.575Z,11.35
2023-01-05T03:38:19.092Z,10.43
2023-01-05T03:40:52.423Z,10.23
2023-01-05T03:43:21.699Z,10.95
2023-01-05T03:45:58.444Z,11.00
2023-01-05T03:48:29.212Z,11.55
2023-01-05T03:50:57.075Z,9.32
2023-01-05T03:53:27.480Z,9.75
2023-01-05T03:55:55.678Z,9.85
2023-01-05T03:58:25.626Z,10.23
2023-01-05T04:00:53.559Z,10.45
2023-01-05T04:03:29.453Z,11.13
2023-01-05T04:06:00.249Z,10.95
2023-01-05T04:08:30.788Z,10.35
2023-01-05T04:11:15.630Z,10.55
2023-01-05T04:13:48.204Z,9.75
2023-01-05T04:16:17.475Z,10.60
2023-01-05T04:18:45.605Z,9.48
2023-01-05T04:21:16.811Z,9.48
2023-01-05T04:23:48.356Z,9.95
2023-01-05T04:26:16.649Z,10.05
2023-01-05T04:28:49.063Z,9.02
2023-01-05T04:31:21.246Z,8.65
2023-01-05T04:33:50.607Z,9.02
2023-01-05T04:36:22.129Z,7.82
2023-01-05T04:38:50.217Z,8.65
2023-01-05T04:41:18.584Z,8.13
2023-01-05T04:43:52.637Z,7.97
2023-01-05T04:46:21.368Z,8.43
2023-01-05T04:48:54.397Z,7.70
2023-01-05T04:51:22.766Z,7.63
2023-01-05T04:53:51.683Z,7.78
2023-01-05T04:56:23.211Z,7.55
2023-01-05T04:58:51.166Z,7.82
2023-01-05T05:01:19.801Z,7.50
2023-01-05T05:03:53.218Z,8.23
2023-01-05T05:06:23.426Z,7.15
2023-01-05T05:08:52.488Z,7.93
2023-01-05T05:11:21.029Z,7.15
2023-01-05T05:13:50.361Z,6.82
2023-01-05T05:16:18.362Z,8.52
2023-01-05T05:18:48.057Z,7.43
2023-01-05T05:21:20.558Z,8.05
2023-01-05T05:23:48.385Z,7.68
2023-01-05T05:26:16.422Z,9.18
2023-01-05T05:28:46.610Z,9.13
2023-01-05T05:31:16.511Z,8.65
2023-01-05T05:33:44.358Z,8.63
2023-01-05T05:36:12.325Z,8.75
2023-01-05T05:38:40.333Z,9.05
2023-01-05T05:41:13.478Z,10.00
2023-01-05T05:43:41.420Z,9.23
2023-01-05T05:46:12.414Z,9.43
2023-01-05T05:48:40.240Z,11.23
2023-01-05T05:51:08.158Z,10.75
2023-01-05T05:53:36.132Z,9.57
2023-01-05T05:56:04.079Z,9.65
2023-01-05T05:58:32.370Z,9.27
2023-01-05T06:01:00.327Z,8.88
2023-01-05T06:03:28.073Z,10.65
2023-01-05T06:05:55.880Z,11.02
2023-01-05T06:08:24.262Z,10.70
2023-01-05T06:10:51.969Z,9.60
2023-01-05T06:13:19.704Z,10.13
2023-01-05T06:15:47.877Z,11.52
2023-01-05T06:18:16.879Z,11.48
2023-01-05T06:20:46.122Z,10.00
2023-01-05T06:23:13.882Z,10.38
2023-01-05T06:25:41.964Z,9.32
2023-01-05T06:28:12.142Z,9.95
2023-01-05T06:30:41.272Z,10.25
2023-01-05T06:33:09.046Z,9.15
2023-01-05T06:35:39.740Z,12.50
2023-01-05T06:38:07.342Z,9.23
2023-01-05T06:40:35.001Z,8.77
2023-01-05T06:43:02.857Z,9.27
2023-01-05T06:45:33.278Z,8.38
2023-01-05T06:48:01.562Z,8.57
2023-01-05T06:50:30.844Z,9.18
2023-01-05T06:52:59.303Z,9.38
2023-01-05T06:55:27.020Z,9.38
2023-01-05T06:58:00.498Z,11.13
2023-01-05T07:00:29.938Z,10.30
2023-01-05T07:02:57.938Z,9.57
2023-01-05T07:05:25.785Z,10.18
2023-01-05T07:07:53.847Z,10.68
2023-01-05T07:10:22.025Z,10.43
2023-01-05T07:12:54.821Z,9.80
2023-01-05T07:15:32.084Z,10.77
2023-01-05T07:18:02.131Z,11.00
2023-01-05T07:20:30.364Z,9.48
2023-01-05T07:22:58.429Z,10.38
2023-01-05T07:25:38.898Z,9.80
2023-01-05T07:28:07.038Z,10.43
2023-01-05T07:30:47.017Z,10.75
2023-01-05T07:33:27.801Z,11.77
2023-01-05T07:36:06.367Z,9.55
2023-01-05T07:38:40.941Z,10.32
2023-01-05T07:41:09.509Z,11.63
2023-01-05T07:43:57.326Z,11.57
2023-01-05T07:46:27.827Z,11.32
2023-01-05T07:48:55.919Z,10.75
2023-01-05T07:51:23.711Z,10.40
2023-01-05T07:53:51.695Z,11.30
2023-01-05T07:56:19.881Z,11.93
2023-01-05T07:58:48.551Z,12.15
2023-01-05T08:01:18.677Z,12.73
2023-01-05T08:03:52.241Z,14.10
2023-01-05T08:06:34.504Z,13.45
2023-01-05T08:09:45.976Z,13.02
2023-01-05T08:16:06.232Z,13.05
2023-01-05T08:19:23.039Z,11.85
2023-01-05T08:28:33.179Z,11.43
2023-01-05T08:35:23.036Z,9.68
2023-01-05T08:41:45.528Z,9.35
2023-01-05T08:44:51.342Z,11.07
2023-01-05T09:00:49.706Z,12.18
2023-01-05T09:03:24.309Z,12.65
2023-01-05T09:06:02.784Z,12.77
2023-01-05T09:08:32.143Z,12.77
2023-01-05T09:11:28.904Z,12.15
2023-01-05T09:14:06.452Z,11.35
2023-01-05T09:17:08.668Z,12.35
2023-01-05T09:20:16.311Z,13.48
2023-01-05T09:26:28.674Z,18.88
2023-01-05T09:29:10.116Z,19.77
2023-01-05T09:31:56.687Z,19.20
2023-01-05T09:34:40.467Z,19.77
2023-01-05T09:37:20.893Z,19.42
2023-01-05T09:43:33.393Z,19.70
2023-01-05T09:46:06.192Z,19.60
2023-01-05T09:49:12.968Z,18.75
2023-01-05T09:52:03.978Z,18.08
2023-01-05T09:54:38.284Z,18.77
2023-01-05T09:57:22.640Z,18.85
2023-01-05T09:59:54.760Z,14.52
2023-01-05T10:02:38.504Z,11.82
2023-01-05T10:05:09.648Z,11.18
2023-01-05T10:07:50.772Z,10.68
2023-01-05T10:10:31.185Z,11.02
2023-01-05T10:13:04.371Z,10.68
2023-01-05T10:15:44.495Z,11.02
2023-01-05T10:18:18.142Z,10.15
2023-01-05T10:20:50.777Z,10.02
2023-01-05T10:23:43.500Z,10.55
2023-01-05T10:27:23.707Z,10.93
2023-01-05T10:30:05.491Z,10.07
2023-01-05T10:33:26.830Z,11.07
2023-01-05T10:40:43.245Z,12.30
2023-01-05T10:43:50.249Z,9.70
2023-01-05T10:46:52.579Z,8.50
2023-01-05T10:49:29.926Z,9.07
2023-01-05T10:52:21.747Z,9.23
2023-01-05T10:54:53.730Z,8.93
2023-01-05T10:57:41.697Z,9.05
2023-01-05T11:00:32.549Z,9.40
2023-01-05T11:07:32.905Z,10.10
2023-01-05T11:10:33.604Z,12.95
2023-01-05T11:13:56.501Z,12.07
2023-01-05T11:16:32.427Z,14.93
2023-01-05T11:19:07.865Z,15.75
2023-01-05T11:21:46.096Z,17.23
2023-01-05T11:24:28.051Z,16.77
2023-01-05T11:27:57.146Z,15.27
2023-01-05T11:34:10.167Z,16.10
2023-01-05T11:40:40.827Z,14.80
2023-01-05T11:55:03.198Z,16.47
2023-01-05T11:58:02.529Z,15.73
2023-01-05T12:04:18.695Z,18.00
2023-01-05T12:07:30.732Z,17.98
2023-01-05T12:10:03.112Z,16.67
2023-01-05T12:13:01.254Z,16.65
2023-01-05T12:16:04.441Z,16.45
2023-01-05T12:19:10.944Z,17.17
2023-01-05T12:22:30.211Z,17.13
2023-01-05T12:25:14.560Z,15.70
2023-01-05T12:28:39.517Z,16.05
2023-01-05T12:34:45.869Z,15.00
2023-01-05T12:37:46.018Z,18.10
2023-01-05T12:40:47.349Z,18.77
2023-01-05T12:43:48.177Z,17.58
2023-01-05T12:46:40.342Z,18.63
2023-01-05T12:49:18.571Z,18.85
2023-01-05T12:52:07.145Z,18.08
2023-01-05T12:54:45.399Z,19.98
2023-01-05T12:57:18.980Z,17.88
2023-01-05T12:59:54.880Z,19.02
2023-01-05T13:02:34.894Z,19.17
2023-01-05T13:05:24.013Z,18.80
2023-01-05T13:08:40.167Z,19.95
2023-01-05T13:11:32.600Z,19.73
2023-01-05T13:14:16.136Z,19.50
2023-01-05T13:16:57.122Z,18.50
2023-01-05T13:19:35.372Z,18.67
2023-01-05T13:22:24.591Z,20.08
2023-01-05T13:25:12.927Z,19.48
2023-01-05T13:27:56.052Z,19.95
2023-01-05T13:30:26.527Z,20.52
2023-01-05T13:33:17.426Z,19.10
2023-01-05T13:36:33.122Z,19.20
2023-01-05T13:39:13.574Z,20.52
2023-01-05T13:42:05.885Z,20.77
2023-01-05T13:45:10.946Z,20.58
2023-01-05T13:49:03.263Z,19.95
2023-01-05T13:51:44.310Z,19.83
2023-01-05T13:54:20.912Z,20.42
2023-01-05T13:56:50.440Z,21.02
2023-01-05T13:59:46.451Z,19.52
2023-01-05T14:03:06.244Z,19.42
2023-01-05T14:06:09.336Z,19.63
2023-01-05T14:08:40.181Z,20.20
2023-01-05T14:11:17.040Z,20.05
2023-01-05T14:13:54.238Z,21.70
2023-01-05T14:16:46.432Z,21.52
2023-01-05T14:22:34.990Z,22.88
2023-01-05T14:26:06.525Z,21.52
2023-01-05T14:28:34.154Z,21.42
2023-01-05T14:31:26.248Z,21.67
2023-01-05T14:33:58.065Z,20.75
2023-01-05T14:36:40.770Z,21.08
2023-01-05T14:39:25.893Z,20.38
2023-01-05T14:42:01.904Z,20.85
2023-01-05T14:44:58.329Z,20.48
2023-01-05T14:48:10.749Z,21.10
2023-01-05T14:50:50.433Z,20.50
2023-01-05T14:53:31.855Z,22.15
2023-01-05T14:56:06.007Z,23.55
2023-01-05T14:58:41.574Z,20.90
2023-01-05T15:01:21.531Z,22.83
2023-01-05T15:04:09.572Z,20.55
2023-01-05T15:07:23.076Z,21.52
2023-01-05T15:10:08.259Z,22.90
2023-01-05T15:13:14.776Z,21.90
2023-01-05T15:16:16.915Z,22.85
2023-01-05T15:18:58.523Z,22.88
2023-01-05T15:24:56.030Z,21.20
2023-01-05T15:27:39.617Z,22.33
2023-01-05T15:30:10.843Z,21.10
2023-01-05T15:32:54.367Z,22.10
2023-01-05T15:35:54.707Z,23.77
2023-01-05T15:38:36.482Z,22.90
2023-01-05T15:41:21.817Z,23.80
2023-01-05T15:43:58.440Z,22.85
2023-01-05T15:46:34.015Z,23.73
2023-01-05T15:49:04.227Z,23.30
2023-01-05T15:51:33.608Z,22.52
2023-01-05T15:54:05.703Z,23.58
2023-01-05T15:56:41.690Z,22.92
2023-01-05T15:59:29.083Z,22.13
2023-01-05T16:01:57.287Z,22.65
2023-01-05T16:04:34.940Z,22.80
2023-01-05T16:07:06.108Z,22.02
2023-01-05T16:09:40.044Z,22.38
2023-01-05T16:12:24.443Z,21.13
2023-01-05T16:15:05.093Z,33.22
2023-01-05T16:17:35.204Z,22.15
2023-01-05T16:20:13.345Z,34.80
2023-01-05T16:23:01.011Z,26.33
2023-01-05T16:25:33.214Z,23.08
2023-01-05T16:28:04.002Z,22.42
2023-01-05T16:30:40.661Z,24.20
2023-01-05T16:33:15.199Z,23.02
2023-01-05T16:38:23.818Z,22.80
2023-01-05T16:40:51.795Z,32.50
2023-01-05T16:44:01.958Z,34.10
2023-01-05T16:46:41.292Z,22.58
2023-01-05T16:49:32.107Z,22.48
2023-01-05T16:52:01.096Z,25.02
2023-01-05T16:54:39.625Z,26.00
2023-01-05T16:57:38.858Z,58.85
2023-01-05T17:00:35.537Z,43.33
2023-01-05T17:03:26.829Z,28.10
2023-01-05T17:05:56.018Z,25.92
2023-01-05T17:08:28.429Z,24.95
2023-01-05T17:11:01.577Z,24.23
2023-01-05T17:13:43.635Z,23.10
2023-01-05T17:16:13.871Z,24.27
2023-01-05T17:18:41.623Z,24.15
2023-01-05T17:21:15.370Z,24.20
2023-01-05T17:26:22.972Z,24.35
2023-01-05T17:28:52.463Z,23.02
2023-01-05T17:31:20.054Z,24.60
2023-01-05T17:33:50.438Z,24.17
2023-01-05T17:36:27.158Z,23.50
2023-01-05T17:38:54.828Z,24.00
2023-01-05T17:41:25.793Z,22.90
2023-01-05T17:43:53.590Z,24.35
2023-01-05T17:46:28.997Z,24.45
2023-01-05T17:48:59.115Z,23.88
2023-01-05T17:51:29.579Z,24.05
2023-01-05T17:53:58.979Z,23.45
2023-01-05T17:56:29.470Z,23.88
2023-01-05T17:58:59.683Z,24.52
2023-01-05T18:01:27.502Z,24.63
2023-01-05T18:03:55.179Z,25.35
2023-01-05T18:06:30.404Z,27.60
2023-01-05T18:08:58.920Z,24.85
2023-01-05T18:11:26.939Z,25.60
2023-01-05T18:13:54.821Z,27.23
2023-01-05T18:16:23.284Z,26.67
2023-01-05T18:18:51.539Z,25.92
2023-01-05T18:21:21.177Z,27.02
2023-01-05T18:23:51.459Z,27.20
2023-01-05T18:26:19.012Z,26.42
2023-01-05T18:28:46.796Z,26.58
2023-01-05T18:31:16.535Z,26.77
2023-01-05T18:33:44.725Z,26.25
2023-01-05T18:36:14.522Z,28.30
2023-01-05T18:38:42.948Z,25.13
2023-01-05T18:41:11.443Z,24.92
2023-01-05T18:43:41.560Z,25.95
2023-01-05T18:46:09.722Z,27.75
2023-01-05T18:48:37.612Z,25.08
2023-01-05T18:51:08.218Z,26.25
2023-01-05T18:53:39.302Z,26.13
2023-01-05T18:56:09.210Z,24.40
2023-01-05T18:58:37.367Z,26.58
2023-01-05T19:01:17.902Z,26.85
2023-01-05T19:03:47.163Z,29.83
2023-01-05T19:06:19.348Z,27.17
2023-01-05T19:08:50.588Z,25.55
2023-01-05T19:11:28.062Z,28.58
2023-01-05T19:13:58.221Z,26.48
2023-01-05T19:16:30.101Z,27.95
2023-01-05T19:19:05.116Z,26.30
2023-01-05T19:21:34.449Z,26.92
2023-01-05T19:24:04.279Z,27.83
2023-01-05T19:26:33.275Z,26.17
2023-01-05T19:29:02.772Z,26.80
2023-01-05T19:31:30.653Z,25.80
2023-01-05T19:34:01.968Z,25.98
2023-01-05T19:36:35.280Z,27.00
2023-01-05T19:39:10.885Z,27.55
2023-01-05T19:41:40.209Z,27.30
2023-01-05T19:44:08.756Z,28.23
2023-01-05T19:46:36.636Z,26.77
2023-01-05T19:49:04.472Z,26.88
2023-01-05T19:51:32.608Z,27.85
2023-01-05T19:54:04.168Z,27.65
2023-01-05T19:56:33.958Z,27.60
2023-01-05T19:59:04.407Z,27.08
2023-01-05T20:01:34.827Z,27.38
2023-01-05T20:04:03.100Z,27.58
2023-01-05T20:06:34.272Z,27.13
2023-01-05T20:09:04.999Z,30.73
2023-01-05T20:11:40.920Z,28.60
2023-01-05T20:14:24.657Z,29.13
2023-01-05T20:17:05.140Z,28.05
2023-01-05T20:19:34.240Z,28.77
2023-01-05T20:22:03.872Z,28.02
2023-01-05T20:24:33.460Z,29.58
2023-01-05T20:27:04.795Z,27.60
2023-01-05T20:29:32.880Z,28.90
2023-01-05T20:32:05.135Z,27.13
2023-01-05T20:34:36.350Z,27.15
2023-01-05T20:37:07.373Z,26.33
2023-01-05T20:39:37.852Z,27.20
2023-01-05T20:42:05.770Z,28.17
2023-01-05T20:44:36.447Z,30.75
2023-01-05T20:47:11.630Z,28.40
2023-01-05T20:49:45.308Z,29.33
2023-01-05T20:52:15.267Z,28.87
2023-01-05T20:54:42.988Z,27.98
2023-01-05T20:57:10.838Z,30.75
2023-01-05T20:59:39.724Z,29.83
2023-01-05T21:02:21.939Z,30.60
2023-01-05T21:04:51.774Z,28.55
2023-01-05T21:07:20.430Z,28.05
2023-01-05T21:09:49.622Z,27.98
2023-01-05T21:12:17.738Z,30.55
2023-01-05T21:14:45.493Z,28.77
2023-01-05T21:17:13.022Z,30.45
2023-01-05T21:19:40.592Z,32.08
2023-01-05T21:22:08.263Z,31.77
2023-01-05T21:24:36.409Z,31.55
2023-01-05T21:27:04.099Z,29.27
2023-01-05T21:29:31.716Z,30.15
2023-01-05T21:31:59.323Z,30.33
2023-01-05T21:34:26.961Z,31.30
2023-01-05T21:36:54.536Z,30.17
2023-01-05T21:39:25.044Z,30.95
2023-01-05T21:42:11.961Z,30.92
2023-01-05T21:44:40.149Z,29.58
2023-01-05T21:47:08.116Z,29.55
2023-01-05T21:49:36.461Z,30.48
2023-01-05T21:52:23.754Z,29.85
2023-01-05T21:55:09.885Z,31.60
2023-01-05T21:57:38.041Z,29.90
2023-01-05T22:00:06.459Z,33.28
2023-01-05T22:02:34.013Z,33.28
2023-01-05T22:05:01.614Z,32.35
2023-01-05T22:07:29.451Z,32.90
2023-01-05T22:09:57.097Z,32.40
2023-01-05T22:12:24.745Z,32.67
2023-01-05T22:14:52.255Z,30.73
2023-01-05T22:17:19.790Z,32.10
2023-01-05T22:19:47.395Z,32.70
2023-01-05T22:22:15.269Z,32.42
2023-01-05T22:24:42.799Z,31.70
2023-01-05T22:27:10.435Z,31.40
2023-01-05T22:29:40.637Z,30.40
2023-01-05T22:32:08.725Z,29.30
2023-01-05T22:34:37.948Z,31.17
2023-01-05T22:37:05.601Z,28.77
2023-01-05T22:39:33.251Z,31.15
2023-01-05T22:42:00.802Z,30.73
2023-01-05T22:44:28.695Z,30.40
2023-01-05T22:46:57.549Z,30.05
2023-01-05T22:49:25.245Z,31.02
2023-01-05T22:51:52.789Z,28.63
2023-01-05T22:54:20.348Z,28.73
2023-01-05T22:56:47.918Z,31.25
2023-01-05T22:59:15.662Z,28.92
2023-01-05T23:01:45.114Z,30.05
2023-01-05T23:04:13.081Z,29.52
2023-01-05T23:06:41.796Z,30.05
2023-01-05T23:09:12.683Z,29.42
2023-01-05T23:11:42.585Z,29.35
2023-01-05T23:14:11.940Z,28.77
2023-01-05T23:16:42.776Z,28.42
2023-01-05T23:19:12.202Z,28.40
2023-01-05T23:21:39.704Z,27.73
2023-01-05T23:24:07.629Z,29.45
2023-01-05T23:26:35.451Z,27.52
2023-01-05T23:29:06.352Z,26.02
2023-01-05T23:31:33.951Z,25.25
2023-01-05T23:34:01.603Z,25.33
2023-01-05T23:36:29.134Z,25.75
2023-01-05T23:38:56.654Z,25.35
2023-01-05T23:41:24.232Z,24.60
2023-01-05T23:43:51.782Z,23.90
2023-01-05T23:46:21.136Z,24.20
2023-01-05T23:48:50.421Z,24.60
2023-01-05T23:51:18.750Z,23.05
2023-01-05T23:53:48.929Z,24.58
2023-01-05T23:56:22.325Z,23.67
2023-01-05T23:58:54.688Z,22.15
